sensor_id;sensor_type;location;lat;lon;timestamp;pressure;altitude;pressure_sealevel;temperature;humidity
2549;BME280;1284;53.520;10.248;2023-05-23T00:02:18;100530.81;;;20.84;91.94
2549;BME280;1284;53.520;10.248;2023-05-23T00:04:44;100532.88;;;20.80;92.27
2549;BME280;1284;53.520;10.248;2023-05-23T00:09:56;100531.66;;;20.81;91.87
2549;BME280;1284;53.520;10.248;2023-05-23T00:12:22;100525.84;;;20.79;92.31
2549;BME280;1284;53.520;10.248;2023-05-23T00:14:48;100535.94;;;20.82;92.01
2549;BME280;1284;53.520;10.248;2023-05-23T00:17:13;100532.09;;;20.80;92.61
2549;BME280;1284;53.520;10.248;2023-05-23T00:19:41;100526.63;;;20.80;92.89
2549;BME280;1284;53.520;10.248;2023-05-23T00:22:11;100520.28;;;20.83;92.81
2549;BME280;1284;53.520;10.248;2023-05-23T00:24:36;100519.88;;;20.84;92.70
2549;BME280;1284;53.520;10.248;2023-05-23T00:27:02;100528.56;;;20.79;92.52
2549;BME280;1284;53.520;10.248;2023-05-23T00:29:28;100527.75;;;20.82;92.71
2549;BME280;1284;53.520;10.248;2023-05-23T00:31:53;100521.22;;;20.76;92.46
2549;BME280;1284;53.520;10.248;2023-05-23T00:34:19;100528.31;;;20.74;92.52
2549;BME280;1284;53.520;10.248;2023-05-23T00:36:44;100523.38;;;20.68;92.28
2549;BME280;1284;53.520;10.248;2023-05-23T00:39:15;100523.38;;;20.68;92.34
2549;BME280;1284;53.520;10.248;2023-05-23T00:41:50;100517.09;;;20.68;92.33
2549;BME280;1284;53.520;10.248;2023-05-23T00:44:17;100526.19;;;20.65;92.33
2549;BME280;1284;53.520;10.248;2023-05-23T00:46:46;100524.03;;;20.56;92.75
2549;BME280;1284;53.520;10.248;2023-05-23T00:49:13;100530.28;;;20.57;92.59
2549;BME280;1284;53.520;10.248;2023-05-23T00:51:39;100527.88;;;20.59;92.36
2549;BME280;1284;53.520;10.248;2023-05-23T00:54:07;100523.19;;;20.59;92.61
2549;BME280;1284;53.520;10.248;2023-05-23T00:56:33;100516.25;;;20.55;92.81
2549;BME280;1284;53.520;10.248;2023-05-23T00:58:59;100518.63;;;20.53;92.41
2549;BME280;1284;53.520;10.248;2023-05-23T01:01:25;100527.34;;;20.48;92.84
2549;BME280;1284;53.520;10.248;2023-05-23T01:03:51;100515.63;;;20.47;91.93
2549;BME280;1284;53.520;10.248;2023-05-23T01:06:17;100511.25;;;20.34;92.33
2549;BME280;1284;53.520;10.248;2023-05-23T01:08:43;100515.16;;;20.33;92.09
2549;BME280;1284;53.520;10.248;2023-05-23T01:11:18;100528.16;;;20.29;92.04
2549;BME280;1284;53.520;10.248;2023-05-23T01:13:57;100522.84;;;20.22;92.35
2549;BME280;1284;53.520;10.248;2023-05-23T01:16:34;100518.69;;;20.14;92.29
2549;BME280;1284;53.520;10.248;2023-05-23T01:19:15;100512.31;;;20.20;91.79
2549;BME280;1284;53.520;10.248;2023-05-23T01:21:47;100521.06;;;20.12;92.22
2549;BME280;1284;53.520;10.248;2023-05-23T01:24:35;100509.28;;;20.15;92.40
2549;BME280;1284;53.520;10.248;2023-05-23T01:27:07;100499.97;;;20.12;92.47
2549;BME280;1284;53.520;10.248;2023-05-23T01:29:39;100493.94;;;20.01;92.64
2549;BME280;1284;53.520;10.248;2023-05-23T01:32:10;100495.56;;;19.99;93.49
2549;BME280;1284;53.520;10.248;2023-05-23T01:34:37;100489.91;;;19.90;94.13
2549;BME280;1284;53.520;10.248;2023-05-23T01:37:10;100489.75;;;19.77;95.17
2549;BME280;1284;53.520;10.248;2023-05-23T01:39:36;100494.66;;;19.86;95.01
2549;BME280;1284;53.520;10.248;2023-05-23T01:42:03;100480.72;;;19.80;95.10
2549;BME280;1284;53.520;10.248;2023-05-23T01:44:29;100487.56;;;19.88;95.19
2549;BME280;1284;53.520;10.248;2023-05-23T01:46:55;100489.47;;;19.91;94.72
2549;BME280;1284;53.520;10.248;2023-05-23T01:49:22;100495.72;;;19.92;95.23
2549;BME280;1284;53.520;10.248;2023-05-23T01:51:48;100481.25;;;19.91;95.54
2549;BME280;1284;53.520;10.248;2023-05-23T01:54:15;100497.94;;;19.97;95.73
2549;BME280;1284;53.520;10.248;2023-05-23T01:56:41;100498.66;;;20.01;95.80
2549;BME280;1284;53.520;10.248;2023-05-23T01:59:07;100484.44;;;19.90;96.09
2549;BME280;1284;53.520;10.248;2023-05-23T02:01:33;100489.38;;;19.95;96.35
2549;BME280;1284;53.520;10.248;2023-05-23T02:03:59;100486.38;;;19.89;96.56
2549;BME280;1284;53.520;10.248;2023-05-23T02:06:25;100493.19;;;20.01;96.28
2549;BME280;1284;53.520;10.248;2023-05-23T02:08:50;100487.34;;;20.18;95.68
2549;BME280;1284;53.520;10.248;2023-05-23T02:11:16;100482.44;;;20.10;94.72
2549;BME280;1284;53.520;10.248;2023-05-23T02:13:44;100489.03;;;20.12;95.54
2549;BME280;1284;53.520;10.248;2023-05-23T02:16:10;100495.47;;;20.22;95.12
2549;BME280;1284;53.520;10.248;2023-05-23T02:18:35;100489.50;;;20.27;94.94
2549;BME280;1284;53.520;10.248;2023-05-23T02:21:03;100497.78;;;20.23;94.56
2549;BME280;1284;53.520;10.248;2023-05-23T02:23:29;100497.44;;;20.21;94.72
2549;BME280;1284;53.520;10.248;2023-05-23T02:25:54;100497.50;;;20.18;95.09
2549;BME280;1284;53.520;10.248;2023-05-23T02:28:20;100498.84;;;20.29;94.31
2549;BME280;1284;53.520;10.248;2023-05-23T02:30:47;100494.22;;;20.26;94.99
2549;BME280;1284;53.520;10.248;2023-05-23T02:33:13;100505.78;;;20.34;94.15
2549;BME280;1284;53.520;10.248;2023-05-23T02:35:38;100499.31;;;20.44;93.36
2549;BME280;1284;53.520;10.248;2023-05-23T02:38:04;100495.59;;;20.34;92.64
2549;BME280;1284;53.520;10.248;2023-05-23T02:40:29;100499.63;;;20.30;92.65
2549;BME280;1284;53.520;10.248;2023-05-23T02:42:55;100489.97;;;20.41;91.28
2549;BME280;1284;53.520;10.248;2023-05-23T02:45:22;100485.59;;;20.28;91.47
2549;BME280;1284;53.520;10.248;2023-05-23T02:47:48;100491.13;;;20.24;91.80
2549;BME280;1284;53.520;10.248;2023-05-23T02:50:13;100499.09;;;20.15;91.76
2549;BME280;1284;53.520;10.248;2023-05-23T02:52:39;100493.19;;;20.20;91.23
2549;BME280;1284;53.520;10.248;2023-05-23T02:55:07;100494.00;;;19.98;91.67
2549;BME280;1284;53.520;10.248;2023-05-23T02:57:39;100499.34;;;20.05;91.49
2549;BME280;1284;53.520;10.248;2023-05-23T03:00:05;100495.56;;;19.99;92.05
2549;BME280;1284;53.520;10.248;2023-05-23T03:02:31;100499.34;;;20.05;91.49
2549;BME280;1284;53.520;10.248;2023-05-23T03:04:57;100502.63;;;20.16;90.82
2549;BME280;1284;53.520;10.248;2023-05-23T03:07:22;100512.78;;;20.15;89.95
2549;BME280;1284;53.520;10.248;2023-05-23T03:09:48;100511.72;;;20.09;89.98
2549;BME280;1284;53.520;10.248;2023-05-23T03:12:13;100513.72;;;19.89;91.13
2549;BME280;1284;53.520;10.248;2023-05-23T03:14:39;100514.34;;;19.97;90.52
2549;BME280;1284;53.520;10.248;2023-05-23T03:17:04;100519.25;;;19.86;90.99
2549;BME280;1284;53.520;10.248;2023-05-23T03:19:30;100514.41;;;19.73;92.25
2549;BME280;1284;53.520;10.248;2023-05-23T03:21:55;100511.75;;;19.70;92.29
2549;BME280;1284;53.520;10.248;2023-05-23T03:24:21;100517.84;;;19.77;92.21
2549;BME280;1284;53.520;10.248;2023-05-23T03:26:46;100516.59;;;19.82;91.92
2549;BME280;1284;53.520;10.248;2023-05-23T03:29:11;100520.00;;;19.86;90.89
2549;BME280;1284;53.520;10.248;2023-05-23T03:31:37;100514.63;;;19.83;90.92
2549;BME280;1284;53.520;10.248;2023-05-23T03:34:03;100519.88;;;19.73;90.91
2549;BME280;1284;53.520;10.248;2023-05-23T03:39:15;100514.84;;;19.72;91.18
2549;BME280;1284;53.520;10.248;2023-05-23T03:41:41;100512.50;;;19.70;91.06
2549;BME280;1284;53.520;10.248;2023-05-23T03:44:06;100514.13;;;19.68;91.07
2549;BME280;1284;53.520;10.248;2023-05-23T03:46:33;100510.78;;;19.60;91.56
2549;BME280;1284;53.520;10.248;2023-05-23T03:48:58;100513.63;;;19.53;92.07
2549;BME280;1284;53.520;10.248;2023-05-23T03:51:24;100512.91;;;19.49;91.84
2549;BME280;1284;53.520;10.248;2023-05-23T03:53:49;100510.97;;;19.50;91.66
2549;BME280;1284;53.520;10.248;2023-05-23T03:56:15;100513.16;;;19.58;91.33
2549;BME280;1284;53.520;10.248;2023-05-23T03:58:41;100514.59;;;19.63;90.93
2549;BME280;1284;53.520;10.248;2023-05-23T04:01:11;100518.38;;;19.49;91.32
2549;BME280;1284;53.520;10.248;2023-05-23T04:03:38;100516.13;;;19.44;91.54
2549;BME280;1284;53.520;10.248;2023-05-23T04:06:04;100515.03;;;19.61;90.68
2549;BME280;1284;53.520;10.248;2023-05-23T04:08:29;100507.81;;;19.51;90.93
2549;BME280;1284;53.520;10.248;2023-05-23T04:10:59;100516.84;;;19.48;91.20
2549;BME280;1284;53.520;10.248;2023-05-23T04:13:27;100515.28;;;19.47;91.30
2549;BME280;1284;53.520;10.248;2023-05-23T04:15:53;100516.00;;;19.51;90.79
2549;BME280;1284;53.520;10.248;2023-05-23T04:18:22;100510.19;;;19.49;90.83
2549;BME280;1284;53.520;10.248;2023-05-23T04:20:48;100511.03;;;19.46;90.66
2549;BME280;1284;53.520;10.248;2023-05-23T04:23:13;100504.84;;;19.42;90.88
2549;BME280;1284;53.520;10.248;2023-05-23T04:25:41;100510.31;;;19.42;91.25
2549;BME280;1284;53.520;10.248;2023-05-23T04:28:18;100507.25;;;19.40;91.08
2549;BME280;1284;53.520;10.248;2023-05-23T04:30:43;100510.53;;;19.51;89.72
2549;BME280;1284;53.520;10.248;2023-05-23T04:33:10;100513.13;;;19.39;90.57
2549;BME280;1284;53.520;10.248;2023-05-23T04:35:36;100512.22;;;19.45;90.32
2549;BME280;1284;53.520;10.248;2023-05-23T04:38:05;100521.97;;;19.46;90.00
2549;BME280;1284;53.520;10.248;2023-05-23T04:40:31;100514.06;;;19.29;90.37
2549;BME280;1284;53.520;10.248;2023-05-23T04:43:19;100520.28;;;19.29;89.68
2549;BME280;1284;53.520;10.248;2023-05-23T04:45:48;100520.06;;;19.43;89.03
2549;BME280;1284;53.520;10.248;2023-05-23T04:48:35;100521.75;;;19.37;89.01
2549;BME280;1284;53.520;10.248;2023-05-23T04:51:02;100520.72;;;19.28;89.81
2549;BME280;1284;53.520;10.248;2023-05-23T04:53:37;100527.25;;;19.34;89.39
2549;BME280;1284;53.520;10.248;2023-05-23T04:56:03;100514.13;;;19.25;89.73
2549;BME280;1284;53.520;10.248;2023-05-23T04:58:30;100523.84;;;19.26;89.81
2549;BME280;1284;53.520;10.248;2023-05-23T05:01:00;100530.22;;;19.20;90.13
2549;BME280;1284;53.520;10.248;2023-05-23T05:03:25;100528.66;;;19.19;90.44
2549;BME280;1284;53.520;10.248;2023-05-23T05:05:51;100528.41;;;19.10;90.34
2549;BME280;1284;53.520;10.248;2023-05-23T05:08:18;100532.28;;;19.12;90.05
2549;BME280;1284;53.520;10.248;2023-05-23T05:10:44;100529.72;;;19.02;90.53
2549;BME280;1284;53.520;10.248;2023-05-23T05:13:10;100543.31;;;19.05;91.06
2549;BME280;1284;53.520;10.248;2023-05-23T05:15:43;100537.75;;;19.12;89.67
2549;BME280;1284;53.520;10.248;2023-05-23T05:18:08;100534.31;;;19.08;90.04
2549;BME280;1284;53.520;10.248;2023-05-23T05:20:34;100534.31;;;19.08;89.99
2549;BME280;1284;53.520;10.248;2023-05-23T05:23:00;100528.19;;;19.01;90.82
2549;BME280;1284;53.520;10.248;2023-05-23T05:25:26;100533.66;;;19.01;90.60
2549;BME280;1284;53.520;10.248;2023-05-23T05:27:57;100539.41;;;19.06;90.00
2549;BME280;1284;53.520;10.248;2023-05-23T05:30:24;100532.88;;;19.00;89.89
2549;BME280;1284;53.520;10.248;2023-05-23T05:32:56;100534.81;;;19.00;90.05
2549;BME280;1284;53.520;10.248;2023-05-23T05:35:22;100533.03;;;18.89;90.43
2549;BME280;1284;53.520;10.248;2023-05-23T05:37:48;100542.34;;;18.92;90.40
2549;BME280;1284;53.520;10.248;2023-05-23T05:40:13;100534.22;;;18.88;90.47
2549;BME280;1284;53.520;10.248;2023-05-23T05:42:41;100544.66;;;18.93;90.44
2549;BME280;1284;53.520;10.248;2023-05-23T05:45:08;100541.41;;;18.79;91.58
2549;BME280;1284;53.520;10.248;2023-05-23T05:47:36;100539.31;;;18.86;91.75
2549;BME280;1284;53.520;10.248;2023-05-23T05:50:06;100544.38;;;18.88;91.20
2549;BME280;1284;53.520;10.248;2023-05-23T05:52:35;100544.06;;;18.82;92.04
2549;BME280;1284;53.520;10.248;2023-05-23T05:55:06;100549.47;;;18.86;91.79
2549;BME280;1284;53.520;10.248;2023-05-23T05:57:33;100542.84;;;18.87;92.11
2549;BME280;1284;53.520;10.248;2023-05-23T06:00:01;100542.34;;;18.92;92.14
2549;BME280;1284;53.520;10.248;2023-05-23T06:02:33;100552.19;;;18.86;92.53
2549;BME280;1284;53.520;10.248;2023-05-23T06:04:58;100549.34;;;18.93;92.59
2549;BME280;1284;53.520;10.248;2023-05-23T06:07:23;100555.16;;;18.95;92.18
2549;BME280;1284;53.520;10.248;2023-05-23T06:09:49;100561.34;;;18.99;92.57
2549;BME280;1284;53.520;10.248;2023-05-23T06:12:15;100561.66;;;19.05;92.07
2549;BME280;1284;53.520;10.248;2023-05-23T06:14:40;100556.50;;;19.10;91.83
2549;BME280;1284;53.520;10.248;2023-05-23T06:17:07;100559.59;;;19.12;91.57
2549;BME280;1284;53.520;10.248;2023-05-23T06:19:33;100563.63;;;19.04;92.37
2549;BME280;1284;53.520;10.248;2023-05-23T06:21:59;100557.69;;;19.09;92.46
2549;BME280;1284;53.520;10.248;2023-05-23T06:24:24;100558.59;;;19.26;91.31
2549;BME280;1284;53.520;10.248;2023-05-23T06:26:50;100562.41;;;19.05;92.83
2549;BME280;1284;53.520;10.248;2023-05-23T06:29:15;100563.72;;;18.97;93.57
2549;BME280;1284;53.520;10.248;2023-05-23T06:31:41;100560.75;;;19.11;93.44
2549;BME280;1284;53.520;10.248;2023-05-23T06:34:08;100563.44;;;19.15;93.02
2549;BME280;1284;53.520;10.248;2023-05-23T06:36:34;100563.03;;;19.16;92.73
2549;BME280;1284;53.520;10.248;2023-05-23T06:38:59;100567.25;;;19.21;92.27
2549;BME280;1284;53.520;10.248;2023-05-23T06:41:25;100561.91;;;19.14;92.71
2549;BME280;1284;53.520;10.248;2023-05-23T06:43:52;100559.94;;;19.14;92.62
2549;BME280;1284;53.520;10.248;2023-05-23T06:46:22;100571.31;;;19.09;93.01
2549;BME280;1284;53.520;10.248;2023-05-23T06:48:50;100572.88;;;19.10;93.26
2549;BME280;1284;53.520;10.248;2023-05-23T06:51:17;100564.81;;;19.26;92.12
2549;BME280;1284;53.520;10.248;2023-05-23T06:53:43;100567.47;;;19.07;93.14
2549;BME280;1284;53.520;10.248;2023-05-23T06:56:09;100573.03;;;19.00;94.06
2549;BME280;1284;53.520;10.248;2023-05-23T06:58:46;100577.28;;;19.04;94.01
2549;BME280;1284;53.520;10.248;2023-05-23T07:01:11;100577.63;;;19.06;94.01
2549;BME280;1284;53.520;10.248;2023-05-23T07:03:42;100577.94;;;19.12;93.77
2549;BME280;1284;53.520;10.248;2023-05-23T07:06:08;100580.78;;;19.05;94.39
2549;BME280;1284;53.520;10.248;2023-05-23T07:08:34;100586.28;;;19.01;94.71
2549;BME280;1284;53.520;10.248;2023-05-23T07:11:00;100583.19;;;18.99;95.38
2549;BME280;1284;53.520;10.248;2023-05-23T07:13:48;100589.53;;;18.92;95.62
2549;BME280;1284;53.520;10.248;2023-05-23T07:16:20;100589.47;;;18.96;95.46
2549;BME280;1284;53.520;10.248;2023-05-23T07:19:04;100594.75;;;19.07;95.20
2549;BME280;1284;53.520;10.248;2023-05-23T07:21:33;100585.56;;;19.20;93.66
2549;BME280;1284;53.520;10.248;2023-05-23T07:23:59;100588.06;;;19.11;93.73
2549;BME280;1284;53.520;10.248;2023-05-23T07:26:26;100590.50;;;19.06;94.21
2549;BME280;1284;53.520;10.248;2023-05-23T07:28:54;100587.00;;;19.05;94.62
2549;BME280;1284;53.520;10.248;2023-05-23T07:31:20;100586.28;;;19.01;94.34
2549;BME280;1284;53.520;10.248;2023-05-23T07:33:46;100608.16;;;18.98;94.86
2549;BME280;1284;53.520;10.248;2023-05-23T07:36:18;100590.97;;;19.01;94.77
2549;BME280;1284;53.520;10.248;2023-05-23T07:38:43;100598.38;;;19.00;94.62
2549;BME280;1284;53.520;10.248;2023-05-23T07:41:09;100599.91;;;19.01;94.88
2549;BME280;1284;53.520;10.248;2023-05-23T07:43:34;100608.88;;;19.02;95.08
2549;BME280;1284;53.520;10.248;2023-05-23T07:46:00;100610.09;;;19.01;95.50
2549;BME280;1284;53.520;10.248;2023-05-23T07:48:25;100611.69;;;18.98;95.33
2549;BME280;1284;53.520;10.248;2023-05-23T07:50:52;100617.09;;;19.02;95.36
2549;BME280;1284;53.520;10.248;2023-05-23T07:53:20;100622.53;;;19.02;95.33
2549;BME280;1284;53.520;10.248;2023-05-23T07:55:47;100621.91;;;19.17;94.66
2549;BME280;1284;53.520;10.248;2023-05-23T07:58:13;100623.06;;;19.20;93.88
2549;BME280;1284;53.520;10.248;2023-05-23T08:00:39;100634.34;;;19.22;92.79
2549;BME280;1284;53.520;10.248;2023-05-23T08:03:14;100636.78;;;19.16;92.50
2549;BME280;1284;53.520;10.248;2023-05-23T08:05:52;100632.06;;;19.17;92.39
2549;BME280;1284;53.520;10.248;2023-05-23T08:08:18;100628.91;;;19.18;92.38
2549;BME280;1284;53.520;10.248;2023-05-23T08:10:43;100632.06;;;19.17;92.33
2549;BME280;1284;53.520;10.248;2023-05-23T08:13:18;100641.50;;;19.12;92.16
2549;BME280;1284;53.520;10.248;2023-05-23T08:16:03;100639.88;;;19.15;91.99
2549;BME280;1284;53.520;10.248;2023-05-23T08:18:29;100656.59;;;19.20;91.77
2549;BME280;1284;53.520;10.248;2023-05-23T08:20:55;100653.03;;;19.23;91.08
2549;BME280;1284;53.520;10.248;2023-05-23T08:23:21;100658.94;;;19.18;90.49
2549;BME280;1284;53.520;10.248;2023-05-23T08:25:47;100658.94;;;19.18;90.20
2549;BME280;1284;53.520;10.248;2023-05-23T08:28:13;100667.06;;;19.25;89.93
2549;BME280;1284;53.520;10.248;2023-05-23T08:30:56;100667.69;;;19.36;89.37
2549;BME280;1284;53.520;10.248;2023-05-23T08:33:23;100680.94;;;19.38;89.35
2549;BME280;1284;53.520;10.248;2023-05-23T08:35:52;100679.88;;;19.28;87.65
2549;BME280;1284;53.520;10.248;2023-05-23T08:38:18;100675.59;;;19.27;87.87
2549;BME280;1284;53.520;10.248;2023-05-23T08:40:59;100678.84;;;19.19;87.23
2549;BME280;1284;53.520;10.248;2023-05-23T08:43:27;100674.84;;;19.27;87.47
2549;BME280;1284;53.520;10.248;2023-05-23T08:45:53;100686.03;;;19.36;87.34
2549;BME280;1284;53.520;10.248;2023-05-23T08:48:19;100690.75;;;19.35;86.39
2549;BME280;1284;53.520;10.248;2023-05-23T08:50:51;100692.69;;;19.35;87.12
2549;BME280;1284;53.520;10.248;2023-05-23T08:53:19;100700.31;;;19.47;86.15
2549;BME280;1284;53.520;10.248;2023-05-23T08:55:48;100700.84;;;19.38;86.29
2549;BME280;1284;53.520;10.248;2023-05-23T08:58:17;100706.66;;;19.40;86.16
2549;BME280;1284;53.520;10.248;2023-05-23T09:00:54;100707.13;;;19.35;85.97
2549;BME280;1284;53.520;10.248;2023-05-23T09:03:21;100704.41;;;19.35;86.09
2549;BME280;1284;53.520;10.248;2023-05-23T09:05:59;100710.34;;;19.27;86.54
2549;BME280;1284;53.520;10.248;2023-05-23T09:08:26;100719.31;;;19.27;85.87
2549;BME280;1284;53.520;10.248;2023-05-23T09:10:56;100717.84;;;19.19;85.44
2549;BME280;1284;53.520;10.248;2023-05-23T09:13:21;100720.94;;;19.21;85.69
2549;BME280;1284;53.520;10.248;2023-05-23T09:16:00;100729.16;;;19.21;86.03
2549;BME280;1284;53.520;10.248;2023-05-23T09:18:39;100726.31;;;19.28;86.10
2549;BME280;1284;53.520;10.248;2023-05-23T09:21:07;100749.34;;;19.27;85.08
2549;BME280;1284;53.520;10.248;2023-05-23T09:23:37;100734.97;;;19.23;85.08
2549;BME280;1284;53.520;10.248;2023-05-23T09:26:09;100745.78;;;19.30;84.45
2549;BME280;1284;53.520;10.248;2023-05-23T09:28:36;100747.78;;;19.26;84.32
2549;BME280;1284;53.520;10.248;2023-05-23T09:31:03;100758.41;;;19.21;84.40
2549;BME280;1284;53.520;10.248;2023-05-23T09:33:48;100760.81;;;19.15;84.77
2549;BME280;1284;53.520;10.248;2023-05-23T09:36:18;100754.81;;;18.97;84.53
2549;BME280;1284;53.520;10.248;2023-05-23T09:38:46;100756.94;;;18.82;85.22
2549;BME280;1284;53.520;10.248;2023-05-23T09:41:13;100758.88;;;18.82;85.60
2549;BME280;1284;53.520;10.248;2023-05-23T09:43:52;100766.38;;;18.74;86.72
2549;BME280;1284;53.520;10.248;2023-05-23T09:46:19;100764.31;;;18.85;86.97
2549;BME280;1284;53.520;10.248;2023-05-23T09:48:50;100769.44;;;18.80;86.99
2549;BME280;1284;53.520;10.248;2023-05-23T09:51:20;100774.91;;;18.80;87.43
2549;BME280;1284;53.520;10.248;2023-05-23T09:53:46;100776.16;;;18.72;87.77
2549;BME280;1284;53.520;10.248;2023-05-23T09:56:12;100780.03;;;18.74;87.41
2549;BME280;1284;53.520;10.248;2023-05-23T09:58:39;100781.19;;;18.77;87.29
2549;BME280;1284;53.520;10.248;2023-05-23T10:01:09;100787.94;;;18.65;87.63
2549;BME280;1284;53.520;10.248;2023-05-23T10:03:52;100798.19;;;18.51;88.21
2549;BME280;1284;53.520;10.248;2023-05-23T10:06:40;100786.16;;;18.48;88.07
2549;BME280;1284;53.520;10.248;2023-05-23T10:09:12;100798.97;;;18.51;87.92
2549;BME280;1284;53.520;10.248;2023-05-23T10:14:51;100806.06;;;18.42;87.94
2549;BME280;1284;53.520;10.248;2023-05-23T10:17:28;100811.50;;;18.42;87.58
2549;BME280;1284;53.520;10.248;2023-05-23T10:20:00;100813.56;;;18.31;87.38
2549;BME280;1284;53.520;10.248;2023-05-23T10:22:27;100819.81;;;18.28;87.63
2549;BME280;1284;53.520;10.248;2023-05-23T10:24:53;100814.69;;;18.37;86.81
2549;BME280;1284;53.520;10.248;2023-05-23T10:27:18;100828.69;;;18.39;86.83
2549;BME280;1284;53.520;10.248;2023-05-23T10:29:44;100827.13;;;18.38;86.75
2549;BME280;1284;53.520;10.248;2023-05-23T10:32:10;100835.72;;;18.36;86.22
2549;BME280;1284;53.520;10.248;2023-05-23T10:34:50;100830.31;;;18.29;86.20
2549;BME280;1284;53.520;10.248;2023-05-23T10:37:32;100848.66;;;18.29;86.04
2549;BME280;1284;53.520;10.248;2023-05-23T10:40:06;100846.63;;;18.36;85.96
2549;BME280;1284;53.520;10.248;2023-05-23T10:45:22;100850.31;;;18.12;85.89
2549;BME280;1284;53.520;10.248;2023-05-23T10:47:50;100853.44;;;18.11;86.03
2549;BME280;1284;53.520;10.248;2023-05-23T10:50:32;100861.31;;;18.01;86.15
2549;BME280;1284;53.520;10.248;2023-05-23T10:53:03;100866.31;;;18.07;86.12
2549;BME280;1284;53.520;10.248;2023-05-23T10:55:33;100870.28;;;17.98;85.95
2549;BME280;1284;53.520;10.248;2023-05-23T10:58:17;100865.56;;;18.02;84.92
2549;BME280;1284;53.520;10.248;2023-05-23T11:00:51;100871.91;;;17.85;85.07
2549;BME280;1284;53.520;10.248;2023-05-23T11:03:17;100874.59;;;17.96;84.72
2549;BME280;1284;53.520;10.248;2023-05-23T11:05:51;100874.22;;;17.94;84.10
2549;BME280;1284;53.520;10.248;2023-05-23T11:08:19;100881.19;;;18.02;84.11
2549;BME280;1284;53.520;10.248;2023-05-23T11:13:16;100880.41;;;17.94;83.87
2549;BME280;1284;53.520;10.248;2023-05-23T11:15:41;100885.81;;;18.05;83.16
2549;BME280;1284;53.520;10.248;2023-05-23T11:18:09;100902.16;;;18.05;82.53
2549;BME280;1284;53.520;10.248;2023-05-23T11:20:36;100899.94;;;17.89;82.77
2549;BME280;1284;53.520;10.248;2023-05-23T11:23:06;100894.53;;;17.79;83.53
2549;BME280;1284;53.520;10.248;2023-05-23T11:25:42;100904.56;;;17.92;82.82
2549;BME280;1284;53.520;10.248;2023-05-23T11:28:09;100901.41;;;18.01;81.76
2549;BME280;1284;53.520;10.248;2023-05-23T11:30:36;100904.53;;;17.99;82.17
2549;BME280;1284;53.520;10.248;2023-05-23T11:33:10;100899.41;;;18.09;81.30
2549;BME280;1284;53.520;10.248;2023-05-23T11:35:40;100900.22;;;18.06;81.17
2549;BME280;1284;53.520;10.248;2023-05-23T11:38:06;100899.84;;;18.03;80.15
2549;BME280;1284;53.520;10.248;2023-05-23T11:40:38;100906.81;;;18.08;80.31
2549;BME280;1284;53.520;10.248;2023-05-23T11:43:08;100911.13;;;18.06;80.73
2549;BME280;1284;53.520;10.248;2023-05-23T11:45:36;100922.72;;;18.20;79.55
2549;BME280;1284;53.520;10.248;2023-05-23T11:48:15;100904.31;;;18.35;78.56
2549;BME280;1284;53.520;10.248;2023-05-23T11:50:49;100914.00;;;18.39;78.97
2549;BME280;1284;53.520;10.248;2023-05-23T11:53:15;100909.59;;;18.59;78.53
2549;BME280;1284;53.520;10.248;2023-05-23T11:55:56;100914.28;;;18.59;77.20
2549;BME280;1284;53.520;10.248;2023-05-23T11:58:27;100919.31;;;18.60;77.03
2549;BME280;1284;53.520;10.248;2023-05-23T12:01:03;100922.72;;;18.75;76.41
2549;BME280;1284;53.520;10.248;2023-05-23T12:03:30;100923.44;;;18.82;74.05
2549;BME280;1284;53.520;10.248;2023-05-23T12:05:56;100923.44;;;18.82;73.12
2549;BME280;1284;53.520;10.248;2023-05-23T12:08:22;100927.03;;;18.72;73.28
2549;BME280;1284;53.520;10.248;2023-05-23T12:10:55;100918.88;;;18.69;72.77
2549;BME280;1284;53.520;10.248;2023-05-23T12:13:28;100926.63;;;18.74;73.57
2549;BME280;1284;53.520;10.248;2023-05-23T12:16:03;100927.94;;;19.00;73.49
2549;BME280;1284;53.520;10.248;2023-05-23T12:18:30;100926.66;;;19.11;72.57
2549;BME280;1284;53.520;10.248;2023-05-23T12:21:02;100935.50;;;19.22;70.88
2549;BME280;1284;53.520;10.248;2023-05-23T12:23:30;100943.00;;;19.15;71.27
2549;BME280;1284;53.520;10.248;2023-05-23T12:25:56;100935.56;;;19.19;71.54
2549;BME280;1284;53.520;10.248;2023-05-23T12:28:36;100943.03;;;19.11;71.89
2549;BME280;1284;53.520;10.248;2023-05-23T12:31:10;100943.16;;;19.41;69.65
2549;BME280;1284;53.520;10.248;2023-05-23T12:33:43;100948.16;;;19.46;69.69
2549;BME280;1284;53.520;10.248;2023-05-23T12:36:31;100949.00;;;19.43;69.25
2549;BME280;1284;53.520;10.248;2023-05-23T12:39:02;100956.38;;;19.46;68.82
2549;BME280;1284;53.520;10.248;2023-05-23T12:41:28;100967.88;;;19.64;66.97
2549;BME280;1284;53.520;10.248;2023-05-23T12:43:55;100967.06;;;19.67;64.36
2549;BME280;1284;53.520;10.248;2023-05-23T12:46:22;100964.47;;;19.53;64.93
2549;BME280;1284;53.520;10.248;2023-05-23T12:51:36;100954.59;;;19.66;64.67
2549;BME280;1284;53.520;10.248;2023-05-23T12:54:01;100963.25;;;19.58;64.46
2549;BME280;1284;53.520;10.248;2023-05-23T12:56:27;100964.41;;;19.60;64.75
2549;BME280;1284;53.520;10.248;2023-05-23T12:58:52;100959.31;;;19.62;63.89
2549;BME280;1284;53.520;10.248;2023-05-23T13:01:19;100960.63;;;19.81;63.02
2549;BME280;1284;53.520;10.248;2023-05-23T13:03:44;100956.91;;;19.98;62.55
2549;BME280;1284;53.520;10.248;2023-05-23T13:06:10;100962.59;;;20.11;nan
2549;BME280;1284;53.520;10.248;2023-05-23T13:08:36;100967.88;;;20.25;60.06
2549;BME280;1284;53.520;10.248;2023-05-23T13:11:01;100958.88;;;20.28;60.11
2549;BME280;1284;53.520;10.248;2023-05-23T13:13:27;100962.22;;;20.39;58.34
2549;BME280;1284;53.520;10.248;2023-05-23T13:15:54;100968.59;;;20.32;57.98
2549;BME280;1284;53.520;10.248;2023-05-23T13:18:19;100973.34;;;20.25;57.22
2549;BME280;1284;53.520;10.248;2023-05-23T13:20:45;100967.72;;;20.09;56.97
2549;BME280;1284;53.520;10.248;2023-05-23T13:23:11;100976.81;;;19.99;58.44
2549;BME280;1284;53.520;10.248;2023-05-23T13:25:36;100973.03;;;19.89;59.36